Terminal Aerodrome Forecast
Issued by NWS

Home | Current Version | Previous Version | Text Only | Print | Product List | Glossary Off
Versions: 1 2 3 4 5 6 7 8 9 10 11 12 13 14 15 16 17 18 19 20 21

000
FTUS43 KABR 211746
TAFATY
TAF
KATY 211746Z 2118/2218 22010KT P6SM SCT250
     FM220100 22006KT P6SM FEW250
     FM221000 21005KT P6SM BKN110
     FM221500 27006KT P6SM BKN150=

USA.gov is the U.S. government's official web portal to all federal, state and local government web resources and services.